Time;durP1;ratioP1;P1;durP2;ratioP2;P2;SDS_P1;SDS_P2;PMS_P1;PMS_P2;Temp;Humidity;BMP_temperature;BMP_pressure;BME280_temperature;BME280_humidity;BME280_pressure;Samples;Min_cycle;Max_cycle;Signal;HPM_P1;HPM_P2
2022/08/30 00:02:21;;;;;;;11.60;4.30;;;19.40;99.90;;;;;;7342982;19;109360;-74
2022/08/30 00:04:52;;;;;;;13.57;3.90;;;19.40;99.90;;;;;;7342204;19;110406;-74
2022/08/30 00:07:20;;;;;;;11.38;4.15;;;19.30;99.90;;;;;;7348470;19;114109;-74
2022/08/30 00:09:47;;;;;;;7.72;3.90;;;19.30;99.90;;;;;;7343210;19;109868;-74
2022/08/30 00:12:14;;;;;;;11.75;4.13;;;19.30;99.90;;;;;;7343987;19;111252;-74
2022/08/30 00:14:41;;;;;;;10.52;4.10;;;19.30;99.90;;;;;;7343901;19;110383;-74
2022/08/30 00:17:08;;;;;;;9.82;4.03;;;19.20;99.90;;;;;;7344035;19;110561;-74
2022/08/30 00:19:36;;;;;;;13.63;4.03;;;19.20;99.90;;;;;;7342206;19;110195;-74
2022/08/30 00:22:05;;;;;;;14.75;4.53;;;19.20;99.90;;;;;;7341937;19;109559;-74
2022/08/30 00:24:33;;;;;;;13.05;3.97;;;19.20;99.90;;;;;;7342533;19;110553;-74
2022/08/30 00:27:00;;;;;;;10.50;4.40;;;19.20;99.90;;;;;;7349088;19;111211;-74
2022/08/30 00:29:27;;;;;;;11.13;4.45;;;19.10;99.90;;;;;;7343319;19;110798;-74
2022/08/30 00:31:54;;;;;;;17.42;5.03;;;19.00;99.90;;;;;;7342837;19;111310;-74
2022/08/30 00:34:21;;;;;;;8.38;4.15;;;19.00;99.90;;;;;;7342303;19;109380;-74
2022/08/30 00:36:48;;;;;;;12.77;4.38;;;19.00;99.90;;;;;;7342645;19;109400;-74
2022/08/30 00:39:15;;;;;;;20.13;5.03;;;19.00;99.90;;;;;;7341656;19;110886;-73
2022/08/30 00:41:42;;;;;;;13.68;4.80;;;18.90;99.90;;;;;;7343283;19;109652;-74
2022/08/30 00:44:09;;;;;;;12.05;4.70;;;18.90;99.90;;;;;;7342398;19;110263;-74
2022/08/30 00:46:36;;;;;;;14.40;4.60;;;18.90;99.90;;;;;;7342675;19;115060;-74
2022/08/30 00:49:07;;;;;;;9.85;4.30;;;18.90;99.90;;;;;;7347959;19;109619;-74
2022/08/30 00:51:34;;;;;;;10.10;4.18;;;18.90;99.90;;;;;;7343356;19;111159;-74
2022/08/30 00:54:03;;;;;;;11.50;4.13;;;18.80;99.90;;;;;;7340781;19;110912;-74
2022/08/30 00:56:31;;;;;;;12.98;4.63;;;18.90;99.90;;;;;;7340925;19;110748;-74
2022/08/30 00:59:00;;;;;;;11.68;4.50;;;18.90;99.90;;;;;;7342283;19;111398;-74
2022/08/30 01:01:29;;;;;;;10.93;4.20;;;19.00;99.90;;;;;;7341397;19;109470;-74
2022/08/30 01:04:00;;;;;;;10.27;4.50;;;19.00;99.90;;;;;;7341011;19;110491;-74
2022/08/30 01:06:28;;;;;;;15.15;4.85;;;18.90;99.90;;;;;;7342353;19;111173;-74
2022/08/30 01:09:00;;;;;;;10.50;4.95;;;18.90;99.90;;;;;;7341444;19;110657;-74
2022/08/30 01:11:28;;;;;;;7.28;4.28;;;18.90;99.90;;;;;;7346934;19;110549;-74
2022/08/30 01:13:55;;;;;;;11.98;5.15;;;18.90;99.90;;;;;;7341138;19;109678;-74
2022/08/30 01:16:24;;;;;;;9.90;4.90;;;18.80;99.90;;;;;;7341684;19;111988;-74
2022/08/30 01:18:56;;;;;;;13.73;4.40;;;18.80;99.90;;;;;;7339807;19;110413;-74
2022/08/30 01:21:33;;;;;;;9.88;4.78;;;18.70;99.90;;;;;;7342126;19;109516;-74
2022/08/30 01:24:02;;;;;;;6.13;4.60;;;18.70;99.90;;;;;;7340331;19;110654;-74
2022/08/30 01:26:29;;;;;;;12.45;4.53;;;18.80;99.90;;;;;;7341540;19;114095;-74
2022/08/30 01:29:01;;;;;;;13.13;4.63;;;18.80;99.90;;;;;;7340530;19;109835;-74
2022/08/30 01:31:28;;;;;;;12.75;4.90;;;18.80;99.90;;;;;;7340787;19;110279;-74
2022/08/30 01:33:55;;;;;;;12.02;4.50;;;18.80;99.90;;;;;;7346453;19;111161;-74
2022/08/30 01:36:23;;;;;;;12.57;4.93;;;18.80;99.90;;;;;;7338727;19;110304;-74
2022/08/30 01:38:53;;;;;;;8.63;4.55;;;18.80;99.90;;;;;;7339417;19;111240;-74
2022/08/30 01:41:33;;;;;;;10.45;4.50;;;18.80;99.90;;;;;;7339905;19;111456;-74
2022/08/30 01:44:05;;;;;;;10.32;4.13;;;18.70;99.90;;;;;;7339222;19;109381;-74
2022/08/30 01:46:37;;;;;;;10.00;4.60;;;18.70;99.90;;;;;;7341036;19;110253;-74
2022/08/30 01:49:09;;;;;;;12.65;5.03;;;18.70;99.90;;;;;;7340843;19;111921;-74
2022/08/30 01:51:37;;;;;;;8.63;4.25;;;18.60;99.90;;;;;;7339348;19;110710;-74
2022/08/30 01:54:05;;;;;;;14.50;4.80;;;18.60;99.90;;;;;;7340206;19;111993;-74
2022/08/30 01:56:32;;;;;;;13.73;5.05;;;18.60;99.90;;;;;;7344269;19;110123;-74
2022/08/30 01:58:59;;;;;;;8.25;4.97;;;18.50;99.90;;;;;;7339234;19;112302;-74
2022/08/30 02:01:31;;;;;;;9.63;4.50;;;18.60;99.90;;;;;;7340621;19;110006;-75
2022/08/30 02:03:59;;;;;;;9.73;4.63;;;18.60;99.90;;;;;;7340145;19;110015;-74
2022/08/30 02:06:26;;;;;;;14.07;4.55;;;18.60;99.90;;;;;;7340135;19;110644;-74
2022/08/30 02:08:53;;;;;;;8.82;4.70;;;18.60;99.90;;;;;;7337536;19;109884;-74
2022/08/30 02:11:21;;;;;;;11.95;4.43;;;18.60;99.90;;;;;;7340679;19;111292;-74
2022/08/30 02:13:48;;;;;;;11.45;5.10;;;18.50;99.90;;;;;;7339404;19;111255;-74
2022/08/30 02:16:18;;;;;;;11.00;4.78;;;18.50;99.90;;;;;;7339652;19;109294;-74
2022/08/30 02:18:45;;;;;;;14.63;5.60;;;18.50;99.90;;;;;;7344104;19;110504;-74
2022/08/30 02:21:12;;;;;;;10.77;4.63;;;18.50;99.90;;;;;;7340756;19;109405;-74
2022/08/30 02:23:40;;;;;;;9.30;4.70;;;18.50;99.90;;;;;;7339425;19;109449;-74
2022/08/30 02:26:08;;;;;;;9.13;4.88;;;18.50;99.90;;;;;;7340872;19;111426;-74
2022/08/30 02:28:35;;;;;;;10.20;4.43;;;18.50;99.90;;;;;;7338170;19;109813;-74
2022/08/30 02:31:17;;;;;;;13.23;4.88;;;18.50;99.90;;;;;;7340338;19;110646;-74
2022/08/30 02:33:47;;;;;;;12.85;4.70;;;18.50;99.90;;;;;;7338508;19;111303;-74
2022/08/30 02:36:14;;;;;;;9.48;4.78;;;18.40;99.90;;;;;;7337176;19;109499;-74
2022/08/30 02:38:42;;;;;;;9.70;5.13;;;18.40;99.90;;;;;;7344620;19;111011;-74
2022/08/30 02:41:09;;;;;;;8.63;4.75;;;18.40;99.90;;;;;;7339127;19;109846;-75
2022/08/30 02:43:36;;;;;;;10.95;5.13;;;18.30;99.90;;;;;;7338209;19;113919;-74
2022/08/30 02:46:04;;;;;;;10.27;5.25;;;18.30;99.90;;;;;;7336353;19;111133;-74
2022/08/30 02:48:31;;;;;;;10.90;4.90;;;18.30;99.90;;;;;;7338905;19;110235;-74
2022/08/30 02:51:04;;;;;;;10.38;5.38;;;18.20;99.90;;;;;;7336412;19;110217;-74
2022/08/30 02:53:35;;;;;;;9.55;5.30;;;18.20;99.90;;;;;;7336791;19;111153;-74
2022/08/30 02:56:03;;;;;;;11.27;4.65;;;18.10;99.90;;;;;;7339543;19;110071;-75
2022/08/30 02:58:30;;;;;;;6.53;4.95;;;18.10;99.90;;;;;;7339410;19;109471;-75
2022/08/30 03:00:58;;;;;;;10.25;5.10;;;18.00;99.90;;;;;;7343800;19;111526;-75
2022/08/30 03:03:25;;;;;;;9.85;4.90;;;18.00;99.90;;;;;;7339238;19;110210;-75
2022/08/30 03:05:52;;;;;;;7.55;4.72;;;18.00;99.90;;;;;;7337408;19;111898;-76
2022/08/30 03:08:19;;;;;;;10.88;4.97;;;18.00;99.90;;;;;;7336473;19;109392;-75
2022/08/30 03:10:46;;;;;;;12.15;5.25;;;17.90;99.90;;;;;;7336849;19;109223;-75
2022/08/30 03:13:14;;;;;;;6.25;4.50;;;17.90;99.90;;;;;;7339084;19;111474;-75
2022/08/30 03:15:41;;;;;;;9.32;5.38;;;18.00;99.90;;;;;;7338650;19;109629;-75
2022/08/30 03:18:09;;;;;;;10.32;5.13;;;18.00;99.90;;;;;;7337477;19;111691;-74
2022/08/30 03:20:36;;;;;;;15.55;5.57;;;18.00;99.90;;;;;;7337336;19;111329;-74
2022/08/30 03:23:03;;;;;;;11.38;5.13;;;17.90;99.90;;;;;;7343616;19;110039;-74
2022/08/30 03:25:30;;;;;;;9.70;5.22;;;17.90;99.90;;;;;;7336338;19;112865;-74
2022/08/30 03:27:57;;;;;;;12.80;5.53;;;17.90;99.90;;;;;;7337319;19;109915;-74
2022/08/30 03:30:25;;;;;;;13.27;5.25;;;17.90;99.90;;;;;;7337798;19;110818;-74
2022/08/30 03:32:52;;;;;;;13.70;4.88;;;17.90;99.90;;;;;;7335369;19;110537;-74
2022/08/30 03:35:19;;;;;;;10.52;4.95;;;17.80;99.90;;;;;;7337923;19;109492;-75
2022/08/30 03:37:47;;;;;;;9.63;5.30;;;17.90;99.90;;;;;;7337590;19;109482;-74
2022/08/30 03:40:21;;;;;;;13.32;5.38;;;17.90;99.90;;;;;;7337818;19;111118;-74
2022/08/30 03:42:49;;;;;;;9.77;5.18;;;17.90;99.90;;;;;;7336514;19;109634;-74
2022/08/30 03:45:18;;;;;;;6.82;5.55;;;17.90;99.90;;;;;;7341349;19;110586;-72
2022/08/30 03:47:45;;;;;;;16.02;5.55;;;17.90;99.90;;;;;;7337966;19;109438;-72
2022/08/30 03:50:13;;;;;;;8.25;5.55;;;17.90;99.90;;;;;;7337572;19;110751;-72
2022/08/30 03:52:40;;;;;;;11.88;5.50;;;17.90;99.90;;;;;;7337693;19;110151;-72
2022/08/30 03:55:08;;;;;;;13.85;5.45;;;17.90;99.90;;;;;;7338697;19;109891;-72
2022/08/30 03:57:35;;;;;;;8.65;5.00;;;17.90;99.90;;;;;;7338323;19;110207;-73
2022/08/30 04:00:05;;;;;;;8.38;5.22;;;17.90;99.90;;;;;;7335186;19;111293;-72
2022/08/30 04:02:32;;;;;;;11.05;5.47;;;18.00;99.90;;;;;;7338248;19;109555;-73
2022/08/30 04:04:59;;;;;;;14.63;6.20;;;17.90;99.90;;;;;;7336528;19;112232;-72
2022/08/30 04:07:26;;;;;;;20.27;6.32;;;17.90;99.90;;;;;;7342650;19;114812;-72
2022/08/30 04:09:53;;;;;;;8.23;5.40;;;17.90;99.90;;;;;;7337796;19;113919;-72
2022/08/30 04:12:21;;;;;;;6.55;5.25;;;17.90;99.90;;;;;;7337084;19;110196;-72
2022/08/30 04:14:50;;;;;;;11.07;5.30;;;17.90;99.90;;;;;;7336737;19;109546;-73
2022/08/30 04:17:17;;;;;;;10.95;5.25;;;17.80;99.90;;;;;;7337330;19;109480;-72
2022/08/30 04:19:44;;;;;;;6.93;5.30;;;17.90;99.90;;;;;;7333868;19;111589;-73
2022/08/30 04:22:11;;;;;;;14.70;5.60;;;17.80;99.90;;;;;;7343800;19;110128;-73
2022/08/30 04:24:40;;;;;;;8.57;5.90;;;17.80;99.90;;;;;;7344491;19;110720;-73
2022/08/30 04:27:07;;;;;;;11.55;5.22;;;17.80;99.90;;;;;;7344419;19;111284;-72
2022/08/30 04:29:35;;;;;;;9.20;5.20;;;17.80;99.90;;;;;;7347666;19;109122;-72
2022/08/30 04:32:02;;;;;;;13.18;6.30;;;17.80;99.90;;;;;;7342662;19;109857;-72
2022/08/30 04:34:29;;;;;;;6.75;5.47;;;17.90;99.90;;;;;;7343128;19;111785;-74
2022/08/30 04:36:56;;;;;;;8.05;5.85;;;17.80;99.90;;;;;;7344655;19;110446;-73
2022/08/30 04:39:25;;;;;;;9.10;5.47;;;17.80;99.90;;;;;;7343613;19;111564;-73
2022/08/30 04:41:52;;;;;;;13.40;6.35;;;17.80;99.90;;;;;;7344717;19;109412;-72
2022/08/30 04:44:19;;;;;;;10.23;5.80;;;17.80;99.90;;;;;;7342385;19;111020;-72
2022/08/30 04:46:46;;;;;;;8.60;5.95;;;17.70;99.90;;;;;;7341342;19;111331;-72
2022/08/30 04:49:13;;;;;;;10.95;6.57;;;17.70;99.90;;;;;;7346918;19;109736;-73
2022/08/30 04:51:40;;;;;;;12.30;6.07;;;17.70;99.90;;;;;;7343544;19;111542;-73
2022/08/30 04:54:07;;;;;;;8.65;6.57;;;17.60;99.90;;;;;;7344365;19;110027;-74
2022/08/30 04:56:34;;;;;;;10.48;6.03;;;17.60;99.90;;;;;;7343168;19;110704;-73
2022/08/30 04:59:02;;;;;;;10.85;6.70;;;17.60;99.90;;;;;;7343547;19;111159;-73
2022/08/30 05:01:31;;;;;;;12.52;6.25;;;17.60;99.90;;;;;;7343818;19;110012;-73
2022/08/30 05:04:10;;;;;;;8.57;6.63;;;17.60;99.90;;;;;;7343762;19;113631;-72
2022/08/30 05:06:37;;;;;;;11.40;6.70;;;17.50;99.90;;;;;;7342035;19;110758;-73
2022/08/30 05:09:04;;;;;;;9.85;7.03;;;17.60;99.90;;;;;;7342125;19;110397;-72
2022/08/30 05:11:31;;;;;;;10.02;6.82;;;17.60;99.90;;;;;;7347695;19;110612;-78
2022/08/30 05:13:58;;;;;;;10.98;6.70;;;17.60;99.90;;;;;;7341767;19;109375;-80
2022/08/30 05:16:25;;;;;;;7.28;6.05;;;17.60;99.90;;;;;;7342325;19;110557;-76
2022/08/30 05:18:53;;;;;;;8.30;6.80;;;17.60;99.90;;;;;;7340649;19;110128;-78
2022/08/30 05:21:26;;;;;;;11.35;6.22;;;17.60;99.90;;;;;;7342372;19;111342;-78
2022/08/30 05:23:55;;;;;;;22.92;6.95;;;17.70;99.90;;;;;;7341706;19;110641;-78
2022/08/30 05:26:25;;;;;;;13.00;6.53;;;17.80;99.90;;;;;;7340212;19;110122;-76
2022/08/30 05:28:53;;;;;;;11.27;6.93;;;17.70;99.90;;;;;;7341425;19;109569;-77
2022/08/30 05:31:28;;;;;;;12.07;7.65;;;17.70;99.90;;;;;;7341272;19;109432;-80
2022/08/30 05:33:56;;;;;;;10.38;6.70;;;17.80;99.90;;;;;;7347459;19;111557;-79
2022/08/30 05:36:27;;;;;;;9.77;7.10;;;17.70;99.90;;;;;;7338758;19;110787;-75
2022/08/30 05:38:54;;;;;;;8.18;6.75;;;17.70;99.90;;;;;;7340532;19;111377;-73
2022/08/30 05:41:23;;;;;;;12.70;7.00;;;17.80;99.90;;;;;;7342501;19;109571;-75
2022/08/30 05:44:00;;;;;;;9.73;6.88;;;17.90;99.90;;;;;;7341945;19;109914;-73
2022/08/30 05:46:32;;;;;;;10.75;6.90;;;17.90;99.90;;;;;;7339243;19;111097;-76
2022/08/30 05:49:18;;;;;;;8.80;7.32;;;17.90;99.90;;;;;;7339818;19;110149;-73
2022/08/30 05:51:46;;;;;;;11.90;7.40;;;17.80;99.90;;;;;;7342290;19;110880;-74
2022/08/30 05:54:14;;;;;;;11.38;7.35;;;17.80;99.90;;;;;;7340913;19;110208;-72
2022/08/30 05:56:44;;;;;;;9.85;7.43;;;17.70;99.90;;;;;;7346881;19;109333;-73
2022/08/30 05:59:11;;;;;;;14.80;7.35;;;17.70;99.90;;;;;;7341098;19;111299;-72
2022/08/30 06:01:42;;;;;;;13.60;7.90;;;17.70;99.90;;;;;;7340548;19;109562;-74
2022/08/30 06:04:11;;;;;;;12.77;7.68;;;17.70;99.90;;;;;;7337772;19;110772;-77
2022/08/30 06:06:40;;;;;;;14.73;7.60;;;17.70;99.90;;;;;;7337290;19;110815;-72
2022/08/30 06:09:09;;;;;;;13.15;7.88;;;17.70;99.90;;;;;;7335200;19;109702;-74
2022/08/30 06:11:36;;;;;;;9.30;8.32;;;17.80;99.90;;;;;;7335031;19;110520;-72
2022/08/30 06:14:04;;;;;;;8.45;7.65;;;17.80;99.90;;;;;;7335322;19;111765;-71
2022/08/30 06:16:31;;;;;;;9.45;7.57;;;17.80;99.90;;;;;;7334270;19;109930;-73
2022/08/30 06:18:59;;;;;;;14.85;8.05;;;17.80;99.90;;;;;;7339171;19;111006;-73
2022/08/30 06:21:29;;;;;;;9.85;8.13;;;17.90;99.90;;;;;;7334514;19;109929;-72
2022/08/30 06:23:56;;;;;;;12.18;7.72;;;17.90;99.90;;;;;;7338109;19;110420;-74
2022/08/30 06:26:25;;;;;;;11.52;7.72;;;18.00;99.90;;;;;;7338518;19;113251;-72
2022/08/30 06:28:53;;;;;;;13.40;8.43;;;18.00;99.90;;;;;;7340396;19;109716;-71
2022/08/30 06:31:21;;;;;;;10.50;7.80;;;18.00;99.90;;;;;;7339981;19;110887;-72
2022/08/30 06:33:49;;;;;;;11.23;8.38;;;18.00;99.90;;;;;;7339766;19;111274;-71
2022/08/30 06:36:22;;;;;;;15.48;8.00;;;18.10;99.90;;;;;;7336753;19;110785;-70
2022/08/30 06:38:51;;;;;;;9.23;8.27;;;18.20;99.90;;;;;;7344080;19;110091;-70
2022/08/30 06:41:21;;;;;;;10.68;7.47;;;18.30;99.90;;;;;;7339391;19;109449;-71
2022/08/30 06:43:48;;;;;;;11.88;7.95;;;18.30;99.90;;;;;;7339091;19;110583;-71
2022/08/30 06:46:19;;;;;;;11.05;8.77;;;18.40;99.90;;;;;;7337784;19;111319;-71
2022/08/30 06:48:47;;;;;;;15.10;8.30;;;18.40;99.90;;;;;;7338950;19;110491;-74
2022/08/30 06:51:18;;;;;;;11.27;8.20;;;18.50;99.90;;;;;;7338933;19;110141;-74
2022/08/30 06:53:47;;;;;;;13.75;7.63;;;18.50;99.90;;;;;;7339781;19;112452;-76
2022/08/30 06:56:16;;;;;;;11.27;8.52;;;18.60;99.90;;;;;;7338243;19;109325;-74
2022/08/30 06:58:46;;;;;;;11.52;7.90;;;18.60;99.90;;;;;;7339832;19;110879;-75
2022/08/30 07:01:19;;;;;;;10.75;8.25;;;18.70;99.90;;;;;;7346303;19;111418;-74
2022/08/30 07:03:47;;;;;;;13.32;8.90;;;18.70;99.90;;;;;;7340004;19;109557;-74
2022/08/30 07:06:14;;;;;;;12.18;8.50;;;18.80;99.90;;;;;;7337671;19;111530;-74
2022/08/30 07:08:41;;;;;;;11.60;7.45;;;18.90;99.90;;;;;;7336616;19;109845;-75
2022/08/30 07:11:09;;;;;;;20.70;9.18;;;19.10;99.90;;;;;;7339046;19;110564;-74
2022/08/30 07:13:37;;;;;;;11.15;8.43;;;19.10;99.90;;;;;;7338621;19;111218;-74
2022/08/30 07:16:11;;;;;;;11.20;7.68;;;19.20;99.90;;;;;;7339754;19;109379;-74
2022/08/30 07:18:54;;;;;;;8.65;7.75;;;19.20;99.90;;;;;;7338252;19;110413;-74
2022/08/30 07:21:28;;;;;;;10.20;8.10;;;19.20;99.90;;;;;;7339162;19;111834;-74
2022/08/30 07:23:57;;;;;;;14.27;8.70;;;19.30;99.90;;;;;;7339947;19;109842;-74
2022/08/30 07:26:50;;;;;;;16.40;7.85;;;19.50;99.90;;;;;;7335288;19;111109;-74
2022/08/30 07:29:19;;;;;;;11.48;8.10;;;19.60;99.90;;;;;;7338547;19;110358;-75
2022/08/30 07:31:47;;;;;;;15.55;9.35;;;19.60;99.90;;;;;;7339487;19;110461;-74
2022/08/30 07:34:14;;;;;;;18.83;8.35;;;19.70;99.90;;;;;;7338500;19;110942;-74
2022/08/30 07:36:41;;;;;;;14.93;8.15;;;19.80;99.90;;;;;;7335978;19;109512;-74
2022/08/30 07:39:08;;;;;;;12.88;8.95;;;19.80;99.90;;;;;;7337214;19;109767;-74
2022/08/30 07:41:37;;;;;;;10.88;8.55;;;19.80;99.90;;;;;;7337918;19;110163;-74
2022/08/30 07:44:05;;;;;;;17.23;8.13;;;20.00;99.90;;;;;;7338299;19;110160;-75
2022/08/30 07:46:33;;;;;;;12.88;7.93;;;20.00;99.90;;;;;;7342453;19;110185;-74
2022/08/30 07:49:01;;;;;;;9.45;7.75;;;20.10;99.90;;;;;;7337353;19;109642;-74
2022/08/30 07:51:31;;;;;;;11.73;8.35;;;20.20;99.90;;;;;;7335614;19;110588;-74
2022/08/30 07:53:59;;;;;;;15.82;8.00;;;20.30;99.90;;;;;;7336948;19;112159;-74
2022/08/30 07:56:26;;;;;;;11.32;7.57;;;20.30;99.90;;;;;;7342662;19;109238;-74
2022/08/30 07:58:53;;;;;;;11.68;7.53;;;20.40;99.90;;;;;;7342249;19;109465;-74
2022/08/30 08:01:21;;;;;;;17.38;7.95;;;20.50;99.90;;;;;;7344850;19;109756;-74
2022/08/30 08:03:52;;;;;;;18.80;7.60;;;20.50;99.90;;;;;;7344331;19;109569;-74
2022/08/30 08:06:21;;;;;;;11.90;6.97;;;20.60;99.90;;;;;;7344482;19;110806;-74
2022/08/30 08:08:50;;;;;;;14.23;7.30;;;20.80;99.90;;;;;;7349744;19;111914;-74
2022/08/30 08:11:24;;;;;;;15.57;7.35;;;20.90;99.90;;;;;;7344334;19;109607;-74
2022/08/30 08:13:56;;;;;;;12.23;7.60;;;21.00;99.90;;;;;;7344214;19;111177;-74
2022/08/30 08:16:25;;;;;;;10.07;7.78;;;21.00;99.90;;;;;;7343998;19;109782;-74
2022/08/30 08:18:53;;;;;;;13.85;6.95;;;21.00;99.90;;;;;;7341993;19;110591;-74
2022/08/30 08:21:22;;;;;;;10.32;6.75;;;21.10;99.90;;;;;;7342163;19;111220;-74
2022/08/30 08:23:50;;;;;;;39.35;7.22;;;21.20;99.90;;;;;;7344383;19;111318;-75
2022/08/30 08:26:18;;;;;;;8.85;5.72;;;21.30;99.90;;;;;;7344471;19;110472;-74
2022/08/30 08:28:45;;;;;;;12.30;6.00;;;21.30;99.90;;;;;;7343517;19;114479;-74
2022/08/30 08:31:17;;;;;;;10.05;5.90;;;21.40;99.90;;;;;;7349858;19;110373;-74
2022/08/30 08:33:44;;;;;;;17.73;5.93;;;21.50;99.90;;;;;;7343361;19;111255;-75
2022/08/30 08:36:11;;;;;;;9.73;5.13;;;21.80;99.90;;;;;;7340714;19;109821;-74
2022/08/30 08:38:38;;;;;;;7.18;5.20;;;21.90;99.90;;;;;;7343182;19;110853;-74
2022/08/30 08:41:15;;;;;;;11.98;4.82;;;22.00;99.90;;;;;;7343986;19;111113;-76
2022/08/30 08:43:42;;;;;;;9.93;4.90;;;22.00;99.90;;;;;;7343263;19;109139;-74
2022/08/30 08:46:30;;;;;;;11.35;4.78;;;22.20;99.90;;;;;;7341577;19;110709;-74
2022/08/30 08:49:03;;;;;;;7.50;4.47;;;22.30;99.90;;;;;;7343005;19;111318;-75
2022/08/30 08:54:31;;;;;;;6.88;3.85;;;22.30;99.90;;;;;;7342183;19;110630;-75
2022/08/30 08:56:58;;;;;;;8.55;4.20;;;22.40;99.90;;;;;;7342391;19;109558;-75
2022/08/30 08:59:25;;;;;;;15.50;4.60;;;22.50;99.90;;;;;;7342960;19;113060;-75
2022/08/30 09:01:55;;;;;;;14.48;4.50;;;22.60;99.90;;;;;;7342865;19;111555;-75
2022/08/30 09:04:30;;;;;;;19.13;4.10;;;22.80;99.90;;;;;;7340178;19;109953;-75
2022/08/30 09:07:23;;;;;;;12.02;4.18;;;22.80;99.90;;;;;;7340604;19;110397;-75
2022/08/30 09:09:50;;;;;;;11.52;3.95;;;22.90;99.90;;;;;;7338172;19;111648;-75
2022/08/30 09:12:18;;;;;;;15.02;4.22;;;22.90;99.90;;;;;;7339165;19;111076;-75
2022/08/30 09:14:51;;;;;;;16.58;4.15;;;22.90;99.90;;;;;;7346162;19;109609;-75
2022/08/30 09:17:22;;;;;;;18.15;4.53;;;23.00;99.90;;;;;;7341999;19;111339;-76
2022/08/30 09:19:52;;;;;;;19.42;4.65;;;23.20;99.90;;;;;;7342272;19;110597;-75
2022/08/30 09:22:36;;;;;;;13.20;4.30;;;23.30;99.90;;;;;;7337326;19;110006;-75
2022/08/30 09:25:04;;;;;;;10.27;3.90;;;23.40;99.90;;;;;;7341790;19;109453;-75
2022/08/30 09:27:37;;;;;;;8.02;3.67;;;23.40;99.90;;;;;;7340169;19;110168;-75
2022/08/30 09:30:08;;;;;;;8.32;3.60;;;23.50;99.90;;;;;;7340906;19;111989;-76
2022/08/30 09:32:51;;;;;;;13.13;3.72;;;23.50;99.90;;;;;;7341543;19;110881;-75
2022/08/30 09:35:23;;;;;;;10.52;3.28;;;23.40;99.80;;;;;;7340097;19;109664;-75
2022/08/30 09:38:04;;;;;;;12.02;3.15;;;23.50;99.40;;;;;;7347343;19;111517;-75
2022/08/30 09:40:56;;;;;;;7.72;3.22;;;23.50;99.50;;;;;;7341815;19;111038;-75
2022/08/30 09:43:33;;;;;;;9.10;3.13;;;23.60;98.60;;;;;;7338849;19;110128;-75
2022/08/30 09:46:00;;;;;;;8.20;3.58;;;23.60;99.00;;;;;;7340201;19;109800;-76
2022/08/30 09:48:34;;;;;;;13.70;3.40;;;23.60;99.20;;;;;;7337558;19;111550;-75
2022/08/30 09:51:18;;;;;;;8.95;3.35;;;23.80;99.00;;;;;;7341015;19;111148;-75
2022/08/30 09:54:21;;;;;;;12.27;3.78;;;23.90;98.90;;;;;;7340925;19;109481;-75
2022/08/30 09:57:00;;;;;;;5.85;3.30;;;24.10;98.70;;;;;;7339758;19;110957;-74
2022/08/30 09:59:36;;;;;;;8.03;3.30;;;24.30;98.60;;;;;;7341508;19;111462;-76
2022/08/30 10:02:23;;;;;;;9.20;3.00;;;24.20;98.30;;;;;;7344118;19;109658;-75
2022/08/30 10:05:01;;;;;;;9.55;3.70;;;24.20;98.00;;;;;;7341224;19;111788;-75
2022/08/30 10:08:16;;;;;;;8.75;3.75;;;24.10;98.00;;;;;;7339665;19;109907;-75
2022/08/30 10:11:00;;;;;;;7.05;3.13;;;24.10;98.30;;;;;;7340143;19;109584;-75
2022/08/30 10:13:50;;;;;;;25.33;3.55;;;24.20;97.90;;;;;;7339827;19;110834;-75
2022/08/30 10:16:32;;;;;;;11.00;2.60;;;24.40;98.10;;;;;;7340475;19;109411;-76
2022/08/30 10:19:05;;;;;;;9.07;3.03;;;24.70;97.80;;;;;;7339414;19;110530;-75
2022/08/30 10:21:46;;;;;;;8.70;2.92;;;24.90;97.30;;;;;;7338813;19;111242;-76
2022/08/30 10:24:23;;;;;;;6.00;3.30;;;24.90;96.30;;;;;;7340756;19;109340;-75
2022/08/30 10:26:58;;;;;;;8.50;2.97;;;24.80;96.50;;;;;;7344924;19;109525;-75
2022/08/30 10:29:43;;;;;;;6.57;2.85;;;24.80;96.70;;;;;;7339620;19;109891;-75
2022/08/30 10:32:19;;;;;;;3.88;2.60;;;24.70;96.70;;;;;;7338430;19;109411;-76
2022/08/30 10:35:00;;;;;;;4.75;2.63;;;24.80;96.40;;;;;;7337394;19;111155;-75
2022/08/30 10:37:30;;;;;;;7.15;2.90;;;24.90;95.90;;;;;;7339697;19;110110;-75
2022/08/30 10:41:11;;;;;;;7.63;2.53;;;24.90;95.60;;;;;;7339700;19;110499;-75
2022/08/30 10:42:52;;;;;;;7.13;2.30;;;24.70;95.60;;;;;;7338052;19;110396;-76
2022/08/30 10:45:20;;;;;;;6.60;2.53;;;24.80;95.90;;;;;;7338294;19;109530;-76
2022/08/30 10:48:01;;;;;;;3.92;2.10;;;24.90;95.70;;;;;;7338847;19;110737;-75
2022/08/30 10:50:33;;;;;;;5.25;2.58;;;24.90;95.40;;;;;;7343101;19;110813;-76
2022/08/30 10:53:23;;;;;;;12.07;2.40;;;24.80;95.60;;;;;;7338743;19;111961;-75
2022/08/30 10:55:57;;;;;;;3.72;2.28;;;25.00;95.60;;;;;;7338863;19;110136;-75
2022/08/30 10:58:24;;;;;;;12.30;2.58;;;25.00;95.50;;;;;;7338400;19;109451;-76
2022/08/30 11:00:52;;;;;;;7.53;2.25;;;25.10;95.80;;;;;;7338824;19;109787;-75
2022/08/30 11:03:30;;;;;;;4.45;1.90;;;25.20;94.70;;;;;;7338456;19;110537;-76
2022/08/30 11:06:07;;;;;;;7.30;2.42;;;25.20;94.60;;;;;;7338695;19;109500;-75
2022/08/30 11:08:39;;;;;;;5.73;1.90;;;25.30;94.50;;;;;;7337628;19;110677;-76
2022/08/30 11:11:32;;;;;;;7.75;2.25;;;25.40;95.20;;;;;;7344999;19;111221;-76
2022/08/30 11:14:02;;;;;;;11.65;2.60;;;25.60;94.40;;;;;;7340338;19;110449;-76
2022/08/30 11:16:40;;;;;;;14.90;2.33;;;25.70;94.60;;;;;;7339046;19;111588;-76
2022/08/30 11:19:33;;;;;;;10.13;2.60;;;25.80;94.50;;;;;;7339699;19;109580;-76
2022/08/30 11:25:08;;;;;;;7.85;2.08;;;25.90;94.00;;;;;;7335073;19;110868;-75
2022/08/30 11:27:57;;;;;;;7.60;1.90;;;26.00;93.10;;;;;;7334559;19;111121;-76
2022/08/30 11:30:24;;;;;;;5.55;1.95;;;25.90;93.20;;;;;;7337034;19;110971;-75
2022/08/30 11:33:30;;;;;;;4.00;2.10;;;26.00;92.70;;;;;;7342624;19;111882;-76
2022/08/30 11:35:57;;;;;;;5.57;1.48;;;25.90;93.30;;;;;;7348916;19;109581;-76
2022/08/30 11:38:24;;;;;;;3.47;1.27;;;26.00;93.50;;;;;;7341449;19;110177;-76
2022/08/30 11:41:05;;;;;;;9.80;1.65;;;26.20;93.30;;;;;;7343077;19;109351;-76
2022/08/30 11:43:35;;;;;;;4.50;1.90;;;26.50;92.60;;;;;;7341812;19;110551;-76
2022/08/30 11:46:27;;;;;;;4.72;1.48;;;26.60;92.40;;;;;;7341783;19;110367;-76
2022/08/30 11:49:12;;;;;;;12.52;2.10;;;26.40;91.60;;;;;;7340260;19;109578;-77
2022/08/30 11:51:47;;;;;;;5.47;1.67;;;26.50;92.20;;;;;;7342481;19;110643;-76
2022/08/30 11:55:02;;;;;;;12.63;1.90;;;26.70;91.60;;;;;;7338324;19;113533;-76
2022/08/30 11:57:51;;;;;;;;;;;26.90;91.70;;;;;;7343368;19;109522;-76
2022/08/30 12:00:35;;;;;;;5.05;1.42;;;27.00;90.80;;;;;;7350999;19;110249;-76
2022/08/30 12:03:27;;;;;;;5.22;1.90;;;26.90;91.20;;;;;;7342657;19;109412;-76
2022/08/30 12:05:59;;;;;;;6.72;1.92;;;26.70;90.70;;;;;;7338050;19;112881;-77
2022/08/30 12:08:34;;;;;;;8.48;1.85;;;26.70;91.40;;;;;;7339928;19;112354;-76
2022/08/30 12:11:07;;;;;;;;;;;26.80;90.20;;;;;;7342477;19;109619;-76
2022/08/30 12:13:35;;;;;;;10.68;1.70;;;26.90;91.00;;;;;;7346513;19;109673;-76
2022/08/30 12:16:10;;;;;;;11.63;1.50;;;27.20;90.90;;;;;;7340770;19;111547;-76
2022/08/30 12:18:59;;;;;;;9.60;2.00;;;27.60;90.50;;;;;;7341129;19;110025;-76
2022/08/30 12:21:29;;;;;;;5.72;1.33;;;27.70;89.10;;;;;;7338820;19;111455;-76
2022/08/30 12:24:27;;;;;;;9.15;1.60;;;27.90;89.10;;;;;;7343231;19;112863;-76
2022/08/30 12:26:57;;;;;;;6.88;1.40;;;27.90;88.20;;;;;;7340015;19;110824;-76
2022/08/30 12:29:30;;;;;;;11.10;1.85;;;27.80;87.10;;;;;;7338658;19;111647;-76
2022/08/30 12:32:07;;;;;;;6.43;1.40;;;27.80;88.40;;;;;;7342000;19;109670;-76
2022/08/30 12:34:39;;;;;;;4.18;1.50;;;27.60;86.80;;;;;;7341811;19;109639;-76
2022/08/30 12:37:31;;;;;;;6.93;1.38;;;27.20;85.60;;;;;;7339504;19;110123;-76
2022/08/30 12:40:19;;;;;;;7.35;1.20;;;27.00;85.90;;;;;;7341412;19;110963;-76
2022/08/30 12:42:51;;;;;;;5.18;1.50;;;26.90;85.90;;;;;;7340305;19;110763;-77
2022/08/30 12:45:23;;;;;;;5.45;1.48;;;27.00;87.00;;;;;;7339960;19;111295;-77
2022/08/30 12:48:00;;;;;;;3.60;1.10;;;27.00;87.30;;;;;;7345973;19;109287;-76
2022/08/30 12:50:29;;;;;;;;;;;27.00;86.70;;;;;;7341652;19;111997;-76
2022/08/30 12:53:04;;;;;;;4.40;1.35;;;27.00;85.70;;;;;;7342107;19;109409;-76
2022/08/30 12:55:34;;;;;;;4.82;1.10;;;27.10;86.50;;;;;;7340506;19;111296;-77
2022/08/30 12:58:12;;;;;;;2.72;1.15;;;27.20;85.30;;;;;;7340794;19;111318;-76
2022/08/30 13:00:42;;;;;;;7.47;1.17;;;27.30;85.80;;;;;;7341118;19;109354;-77